createdAt,value
2017-09-30T00:03:56.000Z,65.8
2017-09-30T00:13:56.000Z,66.4
2017-09-30T00:23:56.000Z,66.4
2017-09-30T00:33:59.000Z,66.2
2017-09-30T00:43:56.000Z,66.6
2017-09-30T00:53:56.000Z,67.2
2017-09-30T01:03:56.000Z,67.4
2017-09-30T01:13:56.000Z,67.4
2017-09-30T01:23:56.000Z,67.2
2017-09-30T01:33:56.000Z,67.5
2017-09-30T01:43:56.000Z,67.9
2017-09-30T01:53:56.000Z,68
2017-09-30T02:03:56.000Z,67.2
2017-09-30T02:13:56.000Z,67.2
2017-09-30T02:23:56.000Z,67.3
2017-09-30T02:33:56.000Z,67.5
2017-09-30T02:43:56.000Z,67.6
2017-09-30T02:53:56.000Z,67.4
2017-09-30T03:03:56.000Z,67.3
2017-09-30T03:23:56.000Z,67.6
2017-09-30T03:33:56.000Z,67.6
2017-09-30T03:43:56.000Z,67.4
2017-09-30T03:53:56.000Z,66.8
2017-09-30T04:03:56.000Z,66.8
2017-09-30T04:13:56.000Z,67
2017-09-30T04:23:56.000Z,66.9
2017-09-30T04:33:56.000Z,66.9
2017-09-30T04:43:56.000Z,67.1
2017-09-30T04:53:57.000Z,67.2
2017-09-30T05:03:57.000Z,66.9
2017-09-30T05:13:57.000Z,66.9
2017-09-30T05:23:57.000Z,66.8
2017-09-30T05:33:57.000Z,66.7
2017-09-30T05:43:57.000Z,66.7
2017-09-30T05:53:57.000Z,66.5
2017-09-30T06:03:57.000Z,66.6
2017-09-30T06:13:57.000Z,66.4
2017-09-30T06:23:57.000Z,66
2017-09-30T06:33:57.000Z,65.8
2017-09-30T06:43:57.000Z,65.6
2017-09-30T06:53:57.000Z,65.4
2017-09-30T07:03:57.000Z,65.3
2017-09-30T07:13:57.000Z,65.2
2017-09-30T07:23:57.000Z,65.3
2017-09-30T07:33:57.000Z,65.7
2017-09-30T07:43:57.000Z,65.8
2017-09-30T07:53:57.000Z,65.9
2017-09-30T08:03:57.000Z,65.4
2017-09-30T08:13:57.000Z,66.3
2017-09-30T08:23:57.000Z,66.3
2017-09-30T08:33:57.000Z,66.5
2017-09-30T08:43:57.000Z,65.5
2017-09-30T08:53:57.000Z,65
2017-09-30T09:03:57.000Z,65.1
2017-09-30T09:13:58.000Z,64
2017-09-30T09:23:57.000Z,63.8
2017-09-30T09:33:57.000Z,63.5
2017-09-30T09:43:57.000Z,63.8
2017-09-30T09:53:57.000Z,63.8
2017-09-30T10:03:57.000Z,64.5
2017-09-30T10:13:57.000Z,65
2017-09-30T10:23:58.000Z,65.6
2017-09-30T10:33:57.000Z,65.6
2017-09-30T10:43:58.000Z,65.9
2017-09-30T10:53:57.000Z,66.2
2017-09-30T11:03:57.000Z,66.3
2017-09-30T11:13:58.000Z,66.2
2017-09-30T11:23:58.000Z,65.7
2017-09-30T11:33:58.000Z,65.1
2017-09-30T11:43:58.000Z,64.8
2017-09-30T11:53:58.000Z,64.5
2017-09-30T12:03:58.000Z,64.4
2017-09-30T12:13:58.000Z,64.2
2017-09-30T12:23:58.000Z,65.1
2017-09-30T12:33:58.000Z,65
2017-09-30T12:43:58.000Z,65.1
2017-09-30T12:53:58.000Z,65.4
2017-09-30T13:03:58.000Z,65.9
2017-09-30T13:13:58.000Z,64.8
2017-09-30T13:23:58.000Z,65.7
2017-09-30T13:33:58.000Z,66.2
2017-09-30T13:43:58.000Z,65.7
2017-09-30T13:53:58.000Z,64
2017-09-30T14:03:58.000Z,63.2
2017-09-30T14:13:58.000Z,62
2017-09-30T14:23:58.000Z,61.5
2017-09-30T14:33:58.000Z,60.8
2017-09-30T14:43:58.000Z,60.3
2017-09-30T14:53:58.000Z,59.7
2017-09-30T15:03:58.000Z,59.1
2017-09-30T15:13:58.000Z,58
2017-09-30T15:23:58.000Z,57.3
2017-09-30T15:33:58.000Z,58.3
2017-09-30T15:43:58.000Z,60.3
2017-09-30T15:53:58.000Z,60.4
2017-09-30T16:03:58.000Z,60.3
2017-09-30T16:13:58.000Z,60.3
2017-09-30T16:23:58.000Z,59.9
2017-09-30T16:33:58.000Z,59.6
2017-09-30T16:43:58.000Z,59.7
2017-09-30T16:53:58.000Z,61
2017-09-30T17:03:58.000Z,62.2
2017-09-30T17:13:58.000Z,62.1
2017-09-30T17:23:58.000Z,61.7
2017-09-30T17:33:58.000Z,61.7
2017-09-30T17:43:59.000Z,60.7
2017-09-30T17:53:59.000Z,60.7
2017-09-30T18:03:59.000Z,60.3
2017-09-30T18:13:59.000Z,60.2
2017-09-30T18:23:59.000Z,60
2017-09-30T18:33:59.000Z,59.8
2017-09-30T18:43:59.000Z,59.6
2017-09-30T18:53:59.000Z,59.9
2017-09-30T19:03:59.000Z,60.2
2017-09-30T19:13:59.000Z,60.5
2017-09-30T19:23:59.000Z,60.6
2017-09-30T19:33:59.000Z,60.7
2017-09-30T19:43:59.000Z,60.8
2017-09-30T19:53:59.000Z,61.1
2017-09-30T20:03:59.000Z,61
2017-09-30T20:13:59.000Z,61
2017-09-30T20:24:00.000Z,60.6
2017-09-30T20:33:59.000Z,60.8
2017-09-30T20:43:59.000Z,60.9
2017-09-30T20:53:59.000Z,60.9
2017-09-30T21:03:59.000Z,61
2017-09-30T21:13:59.000Z,62.1
2017-09-30T21:23:59.000Z,57.5
2017-09-30T21:33:59.000Z,55.1
2017-09-30T21:43:59.000Z,54.1
2017-09-30T21:53:59.000Z,53.5
2017-09-30T22:03:59.000Z,53.4
2017-09-30T22:13:59.000Z,53.5
2017-09-30T22:23:59.000Z,53.5
2017-09-30T22:33:59.000Z,53.5
2017-09-30T22:43:59.000Z,53.4
2017-09-30T22:53:59.000Z,53.2
2017-09-30T23:03:59.000Z,52.9
2017-09-30T23:13:59.000Z,52.8
2017-09-30T23:23:59.000Z,53.1
2017-09-30T23:33:59.000Z,53.3
2017-09-30T23:43:59.000Z,52.7
2017-09-30T23:53:59.000Z,52.4
